sensor_id;sensor_type;location;lat;lon;timestamp;P1;durP1;ratioP1;P2;durP2;ratioP2
47615;SDS011;69146;52.266;7.000;2023-05-07T00:02:25;17.60;;;15.85;;
47615;SDS011;69146;52.266;7.000;2023-05-07T00:05:12;18.17;;;16.48;;
47615;SDS011;69146;52.266;7.000;2023-05-07T00:07:57;16.92;;;15.23;;
47615;SDS011;69146;52.266;7.000;2023-05-07T00:10:42;17.65;;;16.10;;
47615;SDS011;69146;52.266;7.000;2023-05-07T00:13:26;17.75;;;15.95;;
47615;SDS011;69146;52.266;7.000;2023-05-07T00:16:11;17.13;;;15.48;;
47615;SDS011;69146;52.266;7.000;2023-05-07T00:18:56;17.70;;;15.90;;
47615;SDS011;69146;52.266;7.000;2023-05-07T00:21:42;19.98;;;17.98;;
47615;SDS011;69146;52.266;7.000;2023-05-07T00:24:27;20.90;;;18.80;;
47615;SDS011;69146;52.266;7.000;2023-05-07T00:27:11;19.30;;;17.45;;
47615;SDS011;69146;52.266;7.000;2023-05-07T00:29:56;19.55;;;17.67;;
47615;SDS011;69146;52.266;7.000;2023-05-07T00:32:42;19.23;;;17.27;;
47615;SDS011;69146;52.266;7.000;2023-05-07T00:35:29;18.92;;;17.02;;
47615;SDS011;69146;52.266;7.000;2023-05-07T00:38:15;19.85;;;18.00;;
47615;SDS011;69146;52.266;7.000;2023-05-07T00:41:00;20.38;;;18.25;;
47615;SDS011;69146;52.266;7.000;2023-05-07T00:43:46;19.60;;;17.50;;
47615;SDS011;69146;52.266;7.000;2023-05-07T00:46:30;20.92;;;18.83;;
47615;SDS011;69146;52.266;7.000;2023-05-07T00:49:16;21.08;;;18.88;;
47615;SDS011;69146;52.266;7.000;2023-05-07T00:52:02;20.70;;;18.10;;
47615;SDS011;69146;52.266;7.000;2023-05-07T00:54:48;20.48;;;18.38;;
47615;SDS011;69146;52.266;7.000;2023-05-07T00:57:33;20.25;;;18.10;;
47615;SDS011;69146;52.266;7.000;2023-05-07T01:00:21;19.17;;;17.20;;
47615;SDS011;69146;52.266;7.000;2023-05-07T01:03:06;21.25;;;18.42;;
47615;SDS011;69146;52.266;7.000;2023-05-07T01:05:50;19.07;;;17.10;;
47615;SDS011;69146;52.266;7.000;2023-05-07T01:08:37;21.52;;;17.25;;
47615;SDS011;69146;52.266;7.000;2023-05-07T01:11:25;19.33;;;17.13;;
47615;SDS011;69146;52.266;7.000;2023-05-07T01:14:13;19.38;;;17.27;;
47615;SDS011;69146;52.266;7.000;2023-05-07T01:16:58;19.67;;;17.30;;
47615;SDS011;69146;52.266;7.000;2023-05-07T01:19:42;21.08;;;17.25;;
47615;SDS011;69146;52.266;7.000;2023-05-07T01:25:16;20.35;;;17.63;;
47615;SDS011;69146;52.266;7.000;2023-05-07T01:28:01;25.25;;;18.77;;
47615;SDS011;69146;52.266;7.000;2023-05-07T01:30:47;25.33;;;19.25;;
47615;SDS011;69146;52.266;7.000;2023-05-07T01:33:34;21.77;;;19.13;;
47615;SDS011;69146;52.266;7.000;2023-05-07T01:36:21;25.88;;;19.75;;
47615;SDS011;69146;52.266;7.000;2023-05-07T01:39:11;23.65;;;19.73;;
47615;SDS011;69146;52.266;7.000;2023-05-07T01:41:57;26.67;;;20.73;;
47615;SDS011;69146;52.266;7.000;2023-05-07T01:44:43;25.15;;;20.17;;
47615;SDS011;69146;52.266;7.000;2023-05-07T01:47:28;27.08;;;21.20;;
47615;SDS011;69146;52.266;7.000;2023-05-07T01:50:14;26.40;;;21.50;;
47615;SDS011;69146;52.266;7.000;2023-05-07T01:53:01;30.63;;;22.85;;
47615;SDS011;69146;52.266;7.000;2023-05-07T01:55:48;25.80;;;21.88;;
47615;SDS011;69146;52.266;7.000;2023-05-07T01:58:32;27.02;;;22.52;;
47615;SDS011;69146;52.266;7.000;2023-05-07T02:01:17;25.13;;;21.07;;
47615;SDS011;69146;52.266;7.000;2023-05-07T02:04:02;28.10;;;23.55;;
47615;SDS011;69146;52.266;7.000;2023-05-07T02:06:47;31.90;;;22.77;;
47615;SDS011;69146;52.266;7.000;2023-05-07T02:09:32;28.95;;;24.13;;
47615;SDS011;69146;52.266;7.000;2023-05-07T02:12:18;28.60;;;23.17;;
47615;SDS011;69146;52.266;7.000;2023-05-07T02:15:03;30.80;;;24.02;;
47615;SDS011;69146;52.266;7.000;2023-05-07T02:17:57;33.53;;;24.75;;
47615;SDS011;69146;52.266;7.000;2023-05-07T02:20:43;28.57;;;24.27;;
47615;SDS011;69146;52.266;7.000;2023-05-07T02:23:27;29.15;;;24.77;;
47615;SDS011;69146;52.266;7.000;2023-05-07T02:26:12;32.22;;;24.35;;
47615;SDS011;69146;52.266;7.000;2023-05-07T02:28:58;34.60;;;24.77;;
47615;SDS011;69146;52.266;7.000;2023-05-07T02:31:43;33.00;;;25.40;;
47615;SDS011;69146;52.266;7.000;2023-05-07T02:34:28;33.53;;;26.08;;
47615;SDS011;69146;52.266;7.000;2023-05-07T02:37:12;31.07;;;26.43;;
47615;SDS011;69146;52.266;7.000;2023-05-07T02:39:57;30.63;;;25.58;;
47615;SDS011;69146;52.266;7.000;2023-05-07T02:42:42;30.70;;;24.63;;
47615;SDS011;69146;52.266;7.000;2023-05-07T02:45:28;33.97;;;25.48;;
47615;SDS011;69146;52.266;7.000;2023-05-07T02:48:13;33.03;;;25.75;;
47615;SDS011;69146;52.266;7.000;2023-05-07T02:50:58;32.20;;;25.83;;
47615;SDS011;69146;52.266;7.000;2023-05-07T02:53:43;30.70;;;25.08;;
47615;SDS011;69146;52.266;7.000;2023-05-07T02:56:28;31.83;;;25.52;;
47615;SDS011;69146;52.266;7.000;2023-05-07T02:59:13;33.03;;;25.70;;
47615;SDS011;69146;52.266;7.000;2023-05-07T03:01:59;31.73;;;25.17;;
47615;SDS011;69146;52.266;7.000;2023-05-07T03:04:44;28.20;;;24.00;;
47615;SDS011;69146;52.266;7.000;2023-05-07T03:07:29;30.80;;;24.85;;
47615;SDS011;69146;52.266;7.000;2023-05-07T03:10:14;30.73;;;25.48;;
47615;SDS011;69146;52.266;7.000;2023-05-07T03:12:59;34.95;;;25.98;;
47615;SDS011;69146;52.266;7.000;2023-05-07T03:15:44;30.75;;;24.85;;
47615;SDS011;69146;52.266;7.000;2023-05-07T03:18:31;33.97;;;25.17;;
47615;SDS011;69146;52.266;7.000;2023-05-07T03:21:16;31.13;;;25.77;;
47615;SDS011;69146;52.266;7.000;2023-05-07T03:24:00;32.58;;;25.98;;
47615;SDS011;69146;52.266;7.000;2023-05-07T03:26:45;32.03;;;25.02;;
47615;SDS011;69146;52.266;7.000;2023-05-07T03:29:30;35.15;;;26.90;;
47615;SDS011;69146;52.266;7.000;2023-05-07T03:32:15;34.33;;;26.50;;
47615;SDS011;69146;52.266;7.000;2023-05-07T03:35:01;31.65;;;25.83;;
47615;SDS011;69146;52.266;7.000;2023-05-07T03:37:46;34.80;;;26.40;;
47615;SDS011;69146;52.266;7.000;2023-05-07T03:40:31;34.50;;;25.92;;
47615;SDS011;69146;52.266;7.000;2023-05-07T03:43:16;33.70;;;25.67;;
47615;SDS011;69146;52.266;7.000;2023-05-07T03:46:00;33.55;;;26.20;;
47615;SDS011;69146;52.266;7.000;2023-05-07T03:48:45;33.25;;;27.05;;
47615;SDS011;69146;52.266;7.000;2023-05-07T03:51:31;35.90;;;28.00;;
47615;SDS011;69146;52.266;7.000;2023-05-07T03:54:15;33.17;;;26.73;;
47615;SDS011;69146;52.266;7.000;2023-05-07T03:57:00;33.80;;;26.90;;
47615;SDS011;69146;52.266;7.000;2023-05-07T03:59:45;32.53;;;26.15;;
47615;SDS011;69146;52.266;7.000;2023-05-07T04:02:30;36.25;;;27.40;;
47615;SDS011;69146;52.266;7.000;2023-05-07T04:05:15;34.28;;;26.95;;
47615;SDS011;69146;52.266;7.000;2023-05-07T04:08:02;35.88;;;27.15;;
47615;SDS011;69146;52.266;7.000;2023-05-07T04:10:47;36.40;;;27.35;;
47615;SDS011;69146;52.266;7.000;2023-05-07T04:13:32;36.80;;;28.33;;
47615;SDS011;69146;52.266;7.000;2023-05-07T04:16:16;39.60;;;29.58;;
47615;SDS011;69146;52.266;7.000;2023-05-07T04:19:01;37.50;;;28.27;;
47615;SDS011;69146;52.266;7.000;2023-05-07T04:21:46;37.95;;;29.20;;
47615;SDS011;69146;52.266;7.000;2023-05-07T04:24:32;39.38;;;28.77;;
47615;SDS011;69146;52.266;7.000;2023-05-07T04:27:17;39.03;;;28.50;;
47615;SDS011;69146;52.266;7.000;2023-05-07T04:30:02;39.90;;;29.53;;
47615;SDS011;69146;52.266;7.000;2023-05-07T04:32:47;35.10;;;28.55;;
47615;SDS011;69146;52.266;7.000;2023-05-07T04:35:32;37.33;;;28.30;;
47615;SDS011;69146;52.266;7.000;2023-05-07T04:38:16;39.25;;;28.38;;
47615;SDS011;69146;52.266;7.000;2023-05-07T04:41:04;38.15;;;29.33;;
47615;SDS011;69146;52.266;7.000;2023-05-07T04:43:49;38.47;;;28.42;;
47615;SDS011;69146;52.266;7.000;2023-05-07T04:46:35;37.33;;;28.83;;
47615;SDS011;69146;52.266;7.000;2023-05-07T04:49:20;40.08;;;28.83;;
47615;SDS011;69146;52.266;7.000;2023-05-07T04:52:07;36.83;;;29.05;;
47615;SDS011;69146;52.266;7.000;2023-05-07T04:54:52;42.08;;;30.08;;
47615;SDS011;69146;52.266;7.000;2023-05-07T04:57:38;40.85;;;30.05;;
47615;SDS011;69146;52.266;7.000;2023-05-07T05:00:24;37.63;;;29.30;;
47615;SDS011;69146;52.266;7.000;2023-05-07T05:03:10;38.22;;;29.55;;
47615;SDS011;69146;52.266;7.000;2023-05-07T05:05:54;39.40;;;28.67;;
47615;SDS011;69146;52.266;7.000;2023-05-07T05:08:41;39.97;;;29.70;;
47615;SDS011;69146;52.266;7.000;2023-05-07T05:11:25;43.17;;;29.77;;
47615;SDS011;69146;52.266;7.000;2023-05-07T05:14:12;41.53;;;30.65;;
47615;SDS011;69146;52.266;7.000;2023-05-07T05:16:56;38.78;;;29.80;;
47615;SDS011;69146;52.266;7.000;2023-05-07T05:19:41;43.15;;;30.55;;
47615;SDS011;69146;52.266;7.000;2023-05-07T05:22:26;39.35;;;30.27;;
47615;SDS011;69146;52.266;7.000;2023-05-07T05:25:13;38.47;;;29.23;;
47615;SDS011;69146;52.266;7.000;2023-05-07T05:27:58;41.10;;;30.63;;
47615;SDS011;69146;52.266;7.000;2023-05-07T05:30:44;39.03;;;30.55;;
47615;SDS011;69146;52.266;7.000;2023-05-07T05:33:32;41.22;;;31.02;;
47615;SDS011;69146;52.266;7.000;2023-05-07T05:36:16;40.67;;;30.35;;
47615;SDS011;69146;52.266;7.000;2023-05-07T05:39:01;41.95;;;30.90;;
47615;SDS011;69146;52.266;7.000;2023-05-07T05:41:48;44.88;;;31.60;;
47615;SDS011;69146;52.266;7.000;2023-05-07T05:44:33;42.85;;;31.63;;
47615;SDS011;69146;52.266;7.000;2023-05-07T05:47:19;41.58;;;30.42;;
47615;SDS011;69146;52.266;7.000;2023-05-07T05:50:04;42.22;;;30.50;;
47615;SDS011;69146;52.266;7.000;2023-05-07T05:52:50;44.17;;;30.23;;
47615;SDS011;69146;52.266;7.000;2023-05-07T05:55:35;39.53;;;30.52;;
47615;SDS011;69146;52.266;7.000;2023-05-07T05:58:19;41.30;;;30.77;;
47615;SDS011;69146;52.266;7.000;2023-05-07T06:01:04;40.63;;;30.85;;
47615;SDS011;69146;52.266;7.000;2023-05-07T06:03:50;38.13;;;29.38;;
47615;SDS011;69146;52.266;7.000;2023-05-07T06:06:35;39.47;;;30.58;;
47615;SDS011;69146;52.266;7.000;2023-05-07T06:09:20;38.90;;;31.02;;
47615;SDS011;69146;52.266;7.000;2023-05-07T06:12:05;39.13;;;29.85;;
47615;SDS011;69146;52.266;7.000;2023-05-07T06:14:50;41.47;;;30.20;;
47615;SDS011;69146;52.266;7.000;2023-05-07T06:17:38;40.50;;;30.02;;
47615;SDS011;69146;52.266;7.000;2023-05-07T06:20:24;42.20;;;31.67;;
47615;SDS011;69146;52.266;7.000;2023-05-07T06:23:09;40.78;;;31.02;;
47615;SDS011;69146;52.266;7.000;2023-05-07T06:25:53;37.57;;;29.57;;
47615;SDS011;69146;52.266;7.000;2023-05-07T06:28:38;39.58;;;30.50;;
47615;SDS011;69146;52.266;7.000;2023-05-07T06:31:22;40.13;;;30.80;;
47615;SDS011;69146;52.266;7.000;2023-05-07T06:34:07;39.95;;;30.17;;
47615;SDS011;69146;52.266;7.000;2023-05-07T06:36:53;37.63;;;28.95;;
47615;SDS011;69146;52.266;7.000;2023-05-07T06:39:38;39.90;;;30.60;;
47615;SDS011;69146;52.266;7.000;2023-05-07T06:42:22;38.83;;;29.80;;
47615;SDS011;69146;52.266;7.000;2023-05-07T06:45:08;40.83;;;29.45;;
47615;SDS011;69146;52.266;7.000;2023-05-07T06:47:53;37.03;;;28.38;;
47615;SDS011;69146;52.266;7.000;2023-05-07T06:50:38;36.70;;;29.35;;
47615;SDS011;69146;52.266;7.000;2023-05-07T06:53:24;41.87;;;29.67;;
47615;SDS011;69146;52.266;7.000;2023-05-07T06:56:10;36.80;;;28.27;;
47615;SDS011;69146;52.266;7.000;2023-05-07T06:58:54;36.90;;;28.73;;
47615;SDS011;69146;52.266;7.000;2023-05-07T07:01:39;35.88;;;28.30;;
47615;SDS011;69146;52.266;7.000;2023-05-07T07:04:24;36.90;;;27.92;;
47615;SDS011;69146;52.266;7.000;2023-05-07T07:09:57;33.05;;;26.85;;
47615;SDS011;69146;52.266;7.000;2023-05-07T07:12:42;39.38;;;28.58;;
47615;SDS011;69146;52.266;7.000;2023-05-07T07:15:28;34.25;;;27.00;;
47615;SDS011;69146;52.266;7.000;2023-05-07T07:18:13;38.25;;;28.50;;
47615;SDS011;69146;52.266;7.000;2023-05-07T07:20:57;35.67;;;27.30;;
47615;SDS011;69146;52.266;7.000;2023-05-07T07:23:42;37.70;;;28.55;;
47615;SDS011;69146;52.266;7.000;2023-05-07T07:26:29;34.33;;;26.75;;
47615;SDS011;69146;52.266;7.000;2023-05-07T07:29:13;33.83;;;26.27;;
47615;SDS011;69146;52.266;7.000;2023-05-07T07:31:58;31.85;;;25.63;;
47615;SDS011;69146;52.266;7.000;2023-05-07T07:34:43;31.60;;;25.42;;
47615;SDS011;69146;52.266;7.000;2023-05-07T07:37:28;29.40;;;25.42;;
47615;SDS011;69146;52.266;7.000;2023-05-07T07:40:13;30.38;;;24.83;;
47615;SDS011;69146;52.266;7.000;2023-05-07T07:42:59;27.95;;;23.30;;
47615;SDS011;69146;52.266;7.000;2023-05-07T07:45:47;28.55;;;24.08;;
47615;SDS011;69146;52.266;7.000;2023-05-07T07:48:36;30.08;;;24.10;;
47615;SDS011;69146;52.266;7.000;2023-05-07T07:51:21;29.13;;;23.23;;
47615;SDS011;69146;52.266;7.000;2023-05-07T07:54:12;27.95;;;22.95;;
47615;SDS011;69146;52.266;7.000;2023-05-07T07:57:08;28.73;;;22.55;;
47615;SDS011;69146;52.266;7.000;2023-05-07T07:59:54;31.23;;;23.97;;
47615;SDS011;69146;52.266;7.000;2023-05-07T08:02:39;31.05;;;23.45;;
47615;SDS011;69146;52.266;7.000;2023-05-07T08:05:24;32.17;;;23.25;;
47615;SDS011;69146;52.266;7.000;2023-05-07T08:08:09;29.00;;;22.92;;
47615;SDS011;69146;52.266;7.000;2023-05-07T08:10:54;24.80;;;21.10;;
47615;SDS011;69146;52.266;7.000;2023-05-07T08:13:39;28.65;;;23.13;;
47615;SDS011;69146;52.266;7.000;2023-05-07T08:16:25;25.58;;;21.75;;
47615;SDS011;69146;52.266;7.000;2023-05-07T08:19:12;27.33;;;21.92;;
47615;SDS011;69146;52.266;7.000;2023-05-07T08:21:57;27.27;;;22.42;;
47615;SDS011;69146;52.266;7.000;2023-05-07T08:24:42;25.02;;;21.33;;
47615;SDS011;69146;52.266;7.000;2023-05-07T08:27:26;24.53;;;19.23;;
47615;SDS011;69146;52.266;7.000;2023-05-07T08:30:12;25.38;;;20.98;;
47615;SDS011;69146;52.266;7.000;2023-05-07T08:32:59;24.67;;;20.30;;
47615;SDS011;69146;52.266;7.000;2023-05-07T08:35:44;26.52;;;20.77;;
47615;SDS011;69146;52.266;7.000;2023-05-07T08:38:29;25.23;;;19.60;;
47615;SDS011;69146;52.266;7.000;2023-05-07T08:41:15;23.27;;;19.08;;
47615;SDS011;69146;52.266;7.000;2023-05-07T08:44:00;22.33;;;19.05;;
47615;SDS011;69146;52.266;7.000;2023-05-07T08:46:48;23.33;;;19.23;;
47615;SDS011;69146;52.266;7.000;2023-05-07T08:49:39;24.30;;;20.08;;
47615;SDS011;69146;52.266;7.000;2023-05-07T08:52:24;23.30;;;19.48;;
47615;SDS011;69146;52.266;7.000;2023-05-07T08:55:13;22.92;;;18.42;;
47615;SDS011;69146;52.266;7.000;2023-05-07T08:57:59;23.92;;;19.00;;
47615;SDS011;69146;52.266;7.000;2023-05-07T09:00:43;24.52;;;20.00;;
47615;SDS011;69146;52.266;7.000;2023-05-07T09:03:28;24.77;;;18.52;;
47615;SDS011;69146;52.266;7.000;2023-05-07T09:06:18;21.52;;;18.02;;
47615;SDS011;69146;52.266;7.000;2023-05-07T09:09:02;25.35;;;19.73;;
47615;SDS011;69146;52.266;7.000;2023-05-07T09:11:56;20.23;;;18.02;;
47615;SDS011;69146;52.266;7.000;2023-05-07T09:14:43;22.40;;;18.65;;
47615;SDS011;69146;52.266;7.000;2023-05-07T09:17:29;21.45;;;18.30;;
47615;SDS011;69146;52.266;7.000;2023-05-07T09:20:14;24.70;;;18.88;;
47615;SDS011;69146;52.266;7.000;2023-05-07T09:23:06;20.98;;;18.00;;
47615;SDS011;69146;52.266;7.000;2023-05-07T09:25:52;22.65;;;18.17;;
47615;SDS011;69146;52.266;7.000;2023-05-07T09:28:46;20.83;;;17.60;;
47615;SDS011;69146;52.266;7.000;2023-05-07T09:31:39;23.23;;;18.17;;
47615;SDS011;69146;52.266;7.000;2023-05-07T09:34:24;23.50;;;18.70;;
47615;SDS011;69146;52.266;7.000;2023-05-07T09:37:10;21.20;;;17.63;;
47615;SDS011;69146;52.266;7.000;2023-05-07T09:39:59;20.15;;;16.15;;
47615;SDS011;69146;52.266;7.000;2023-05-07T09:42:44;20.33;;;17.83;;
47615;SDS011;69146;52.266;7.000;2023-05-07T09:45:29;20.13;;;16.98;;
47615;SDS011;69146;52.266;7.000;2023-05-07T09:48:15;19.48;;;16.65;;
47615;SDS011;69146;52.266;7.000;2023-05-07T09:51:02;19.55;;;16.52;;
47615;SDS011;69146;52.266;7.000;2023-05-07T09:53:56;20.88;;;18.27;;
47615;SDS011;69146;52.266;7.000;2023-05-07T09:56:42;19.98;;;16.92;;
47615;SDS011;69146;52.266;7.000;2023-05-07T09:59:27;20.90;;;16.75;;
47615;SDS011;69146;52.266;7.000;2023-05-07T10:02:15;21.25;;;17.75;;
47615;SDS011;69146;52.266;7.000;2023-05-07T10:05:00;20.88;;;17.13;;
47615;SDS011;69146;52.266;7.000;2023-05-07T10:07:46;19.70;;;16.92;;
47615;SDS011;69146;52.266;7.000;2023-05-07T10:10:32;20.25;;;17.38;;
47615;SDS011;69146;52.266;7.000;2023-05-07T10:13:19;19.90;;;17.33;;
47615;SDS011;69146;52.266;7.000;2023-05-07T10:16:05;24.23;;;17.83;;
47615;SDS011;69146;52.266;7.000;2023-05-07T10:18:50;24.65;;;19.08;;
47615;SDS011;69146;52.266;7.000;2023-05-07T10:21:36;21.35;;;17.17;;
47615;SDS011;69146;52.266;7.000;2023-05-07T10:24:24;18.80;;;16.13;;
47615;SDS011;69146;52.266;7.000;2023-05-07T10:27:12;18.50;;;16.48;;
47615;SDS011;69146;52.266;7.000;2023-05-07T10:30:03;19.98;;;16.83;;
47615;SDS011;69146;52.266;7.000;2023-05-07T10:32:56;19.45;;;16.40;;
47615;SDS011;69146;52.266;7.000;2023-05-07T10:35:49;18.77;;;16.17;;
47615;SDS011;69146;52.266;7.000;2023-05-07T10:38:34;16.80;;;14.55;;
47615;SDS011;69146;52.266;7.000;2023-05-07T10:41:20;20.48;;;15.80;;
47615;SDS011;69146;52.266;7.000;2023-05-07T10:44:05;18.77;;;15.23;;
47615;SDS011;69146;52.266;7.000;2023-05-07T10:47:04;17.98;;;15.85;;
47615;SDS011;69146;52.266;7.000;2023-05-07T10:53:20;20.95;;;17.38;;
47615;SDS011;69146;52.266;7.000;2023-05-07T11:02:28;19.77;;;16.13;;
47615;SDS011;69146;52.266;7.000;2023-05-07T11:08:55;20.00;;;16.17;;
47615;SDS011;69146;52.266;7.000;2023-05-07T11:11:46;19.20;;;16.77;;
47615;SDS011;69146;52.266;7.000;2023-05-07T11:14:44;15.95;;;14.25;;
47615;SDS011;69146;52.266;7.000;2023-05-07T11:17:31;15.55;;;13.15;;
47615;SDS011;69146;52.266;7.000;2023-05-07T11:20:18;19.23;;;14.10;;
47615;SDS011;69146;52.266;7.000;2023-05-07T11:23:04;15.63;;;14.10;;
47615;SDS011;69146;52.266;7.000;2023-05-07T11:28:36;15.85;;;13.55;;
47615;SDS011;69146;52.266;7.000;2023-05-07T11:31:22;14.65;;;12.68;;
47615;SDS011;69146;52.266;7.000;2023-05-07T11:34:11;14.02;;;12.52;;
47615;SDS011;69146;52.266;7.000;2023-05-07T11:36:56;15.50;;;12.02;;
47615;SDS011;69146;52.266;7.000;2023-05-07T11:39:43;14.43;;;11.90;;
47615;SDS011;69146;52.266;7.000;2023-05-07T11:42:29;14.32;;;11.52;;
47615;SDS011;69146;52.266;7.000;2023-05-07T11:45:19;15.52;;;13.50;;
47615;SDS011;69146;52.266;7.000;2023-05-07T11:48:10;13.40;;;11.98;;
47615;SDS011;69146;52.266;7.000;2023-05-07T11:51:01;15.30;;;12.32;;
47615;SDS011;69146;52.266;7.000;2023-05-07T11:53:47;16.92;;;12.95;;
47615;SDS011;69146;52.266;7.000;2023-05-07T11:56:36;16.35;;;13.05;;
47615;SDS011;69146;52.266;7.000;2023-05-07T11:59:21;16.30;;;13.80;;
47615;SDS011;69146;52.266;7.000;2023-05-07T12:04:51;15.02;;;12.25;;
47615;SDS011;69146;52.266;7.000;2023-05-07T12:07:37;14.75;;;12.25;;
47615;SDS011;69146;52.266;7.000;2023-05-07T12:10:22;14.52;;;12.93;;
47615;SDS011;69146;52.266;7.000;2023-05-07T12:13:13;18.48;;;13.27;;
47615;SDS011;69146;52.266;7.000;2023-05-07T12:15:59;15.10;;;12.77;;
47615;SDS011;69146;52.266;7.000;2023-05-07T12:18:49;15.20;;;12.60;;
47615;SDS011;69146;52.266;7.000;2023-05-07T12:21:36;15.60;;;12.63;;
47615;SDS011;69146;52.266;7.000;2023-05-07T12:24:22;14.48;;;12.88;;
47615;SDS011;69146;52.266;7.000;2023-05-07T12:27:07;13.95;;;11.88;;
47615;SDS011;69146;52.266;7.000;2023-05-07T12:29:53;13.15;;;10.82;;
47615;SDS011;69146;52.266;7.000;2023-05-07T12:32:38;13.48;;;11.05;;
47615;SDS011;69146;52.266;7.000;2023-05-07T12:35:27;13.27;;;11.07;;
47615;SDS011;69146;52.266;7.000;2023-05-07T12:38:13;15.90;;;11.38;;
47615;SDS011;69146;52.266;7.000;2023-05-07T12:41:01;13.02;;;10.82;;
47615;SDS011;69146;52.266;7.000;2023-05-07T12:43:46;14.02;;;12.45;;
47615;SDS011;69146;52.266;7.000;2023-05-07T12:46:31;14.55;;;11.35;;
47615;SDS011;69146;52.266;7.000;2023-05-07T12:49:16;15.50;;;11.32;;
47615;SDS011;69146;52.266;7.000;2023-05-07T12:52:02;11.45;;;9.38;;
47615;SDS011;69146;52.266;7.000;2023-05-07T12:54:47;11.43;;;10.23;;
47615;SDS011;69146;52.266;7.000;2023-05-07T12:57:38;13.05;;;10.98;;
47615;SDS011;69146;52.266;7.000;2023-05-07T13:00:34;11.27;;;10.07;;
47615;SDS011;69146;52.266;7.000;2023-05-07T13:03:23;11.88;;;9.65;;
47615;SDS011;69146;52.266;7.000;2023-05-07T13:06:09;13.10;;;9.82;;
47615;SDS011;69146;52.266;7.000;2023-05-07T13:08:59;9.85;;;8.45;;
47615;SDS011;69146;52.266;7.000;2023-05-07T13:11:44;11.98;;;10.43;;
47615;SDS011;69146;52.266;7.000;2023-05-07T13:14:30;12.10;;;10.25;;
47615;SDS011;69146;52.266;7.000;2023-05-07T13:17:15;10.77;;;8.65;;
47615;SDS011;69146;52.266;7.000;2023-05-07T13:22:44;11.07;;;9.50;;
47615;SDS011;69146;52.266;7.000;2023-05-07T13:25:29;10.15;;;9.05;;
47615;SDS011;69146;52.266;7.000;2023-05-07T13:28:15;11.45;;;9.07;;
47615;SDS011;69146;52.266;7.000;2023-05-07T13:33:46;12.07;;;9.45;;
47615;SDS011;69146;52.266;7.000;2023-05-07T13:36:36;10.82;;;9.70;;
47615;SDS011;69146;52.266;7.000;2023-05-07T13:39:25;10.32;;;8.50;;
47615;SDS011;69146;52.266;7.000;2023-05-07T13:42:27;11.35;;;9.02;;
47615;SDS011;69146;52.266;7.000;2023-05-07T13:45:12;9.23;;;8.27;;
47615;SDS011;69146;52.266;7.000;2023-05-07T13:47:59;12.45;;;9.57;;
47615;SDS011;69146;52.266;7.000;2023-05-07T13:50:44;10.32;;;8.98;;
47615;SDS011;69146;52.266;7.000;2023-05-07T13:56:13;11.05;;;9.50;;
47615;SDS011;69146;52.266;7.000;2023-05-07T13:58:59;10.65;;;9.10;;
47615;SDS011;69146;52.266;7.000;2023-05-07T14:04:30;10.10;;;8.75;;
47615;SDS011;69146;52.266;7.000;2023-05-07T14:07:15;11.55;;;9.10;;
47615;SDS011;69146;52.266;7.000;2023-05-07T14:12:44;10.32;;;9.20;;
47615;SDS011;69146;52.266;7.000;2023-05-07T14:15:29;10.40;;;8.73;;
47615;SDS011;69146;52.266;7.000;2023-05-07T14:18:16;10.55;;;8.10;;
47615;SDS011;69146;52.266;7.000;2023-05-07T14:21:02;8.93;;;8.02;;
47615;SDS011;69146;52.266;7.000;2023-05-07T14:23:48;10.00;;;7.95;;
47615;SDS011;69146;52.266;7.000;2023-05-07T14:29:19;10.18;;;8.23;;
47615;SDS011;69146;52.266;7.000;2023-05-07T14:32:04;11.10;;;7.50;;
47615;SDS011;69146;52.266;7.000;2023-05-07T14:34:49;10.38;;;7.78;;
47615;SDS011;69146;52.266;7.000;2023-05-07T14:37:36;10.75;;;8.27;;
47615;SDS011;69146;52.266;7.000;2023-05-07T14:40:20;9.05;;;8.15;;
47615;SDS011;69146;52.266;7.000;2023-05-07T14:43:05;8.60;;;7.00;;
47615;SDS011;69146;52.266;7.000;2023-05-07T14:45:50;8.60;;;7.38;;
47615;SDS011;69146;52.266;7.000;2023-05-07T14:48:35;10.70;;;7.60;;
47615;SDS011;69146;52.266;7.000;2023-05-07T14:51:20;8.30;;;6.85;;
47615;SDS011;69146;52.266;7.000;2023-05-07T14:54:06;9.75;;;6.53;;
47615;SDS011;69146;52.266;7.000;2023-05-07T14:56:51;9.85;;;7.18;;
47615;SDS011;69146;52.266;7.000;2023-05-07T14:59:36;6.85;;;6.00;;
47615;SDS011;69146;52.266;7.000;2023-05-07T15:02:21;9.90;;;6.97;;
47615;SDS011;69146;52.266;7.000;2023-05-07T15:05:06;8.07;;;6.95;;
47615;SDS011;69146;52.266;7.000;2023-05-07T15:07:52;7.70;;;6.90;;
47615;SDS011;69146;52.266;7.000;2023-05-07T15:10:38;7.70;;;6.50;;
47615;SDS011;69146;52.266;7.000;2023-05-07T15:13:26;8.10;;;7.10;;
47615;SDS011;69146;52.266;7.000;2023-05-07T15:16:11;7.60;;;6.80;;
47615;SDS011;69146;52.266;7.000;2023-05-07T15:18:55;7.80;;;6.40;;
47615;SDS011;69146;52.266;7.000;2023-05-07T15:21:42;6.95;;;6.25;;
47615;SDS011;69146;52.266;7.000;2023-05-07T15:24:27;8.38;;;7.20;;
47615;SDS011;69146;52.266;7.000;2023-05-07T15:27:13;9.73;;;7.57;;
47615;SDS011;69146;52.266;7.000;2023-05-07T15:29:58;11.95;;;9.85;;
47615;SDS011;69146;52.266;7.000;2023-05-07T15:35:28;8.68;;;7.57;;
47615;SDS011;69146;52.266;7.000;2023-05-07T15:40:57;9.60;;;7.90;;
47615;SDS011;69146;52.266;7.000;2023-05-07T15:43:45;9.55;;;7.45;;
47615;SDS011;69146;52.266;7.000;2023-05-07T15:46:31;8.75;;;7.50;;
47615;SDS011;69146;52.266;7.000;2023-05-07T15:49:16;8.68;;;7.00;;
47615;SDS011;69146;52.266;7.000;2023-05-07T15:52:01;8.77;;;6.80;;
47615;SDS011;69146;52.266;7.000;2023-05-07T15:54:46;9.43;;;7.10;;
47615;SDS011;69146;52.266;7.000;2023-05-07T15:57:31;7.18;;;6.47;;
47615;SDS011;69146;52.266;7.000;2023-05-07T16:00:18;7.57;;;6.80;;
47615;SDS011;69146;52.266;7.000;2023-05-07T16:03:03;8.25;;;7.13;;
47615;SDS011;69146;52.266;7.000;2023-05-07T16:05:48;8.63;;;7.25;;
47615;SDS011;69146;52.266;7.000;2023-05-07T16:11:17;7.00;;;6.30;;
47615;SDS011;69146;52.266;7.000;2023-05-07T16:16:49;6.53;;;5.93;;
47615;SDS011;69146;52.266;7.000;2023-05-07T16:19:34;8.88;;;6.70;;
47615;SDS011;69146;52.266;7.000;2023-05-07T16:22:19;10.15;;;6.97;;
47615;SDS011;69146;52.266;7.000;2023-05-07T16:25:05;7.88;;;6.40;;
47615;SDS011;69146;52.266;7.000;2023-05-07T16:27:51;8.40;;;7.38;;
47615;SDS011;69146;52.266;7.000;2023-05-07T16:30:36;8.52;;;7.50;;
47615;SDS011;69146;52.266;7.000;2023-05-07T16:33:22;7.50;;;6.70;;
47615;SDS011;69146;52.266;7.000;2023-05-07T16:36:07;7.25;;;6.43;;
47615;SDS011;69146;52.266;7.000;2023-05-07T16:38:52;7.40;;;6.50;;
47615;SDS011;69146;52.266;7.000;2023-05-07T16:41:36;7.97;;;6.07;;
47615;SDS011;69146;52.266;7.000;2023-05-07T16:44:21;7.88;;;6.90;;
47615;SDS011;69146;52.266;7.000;2023-05-07T16:47:07;8.10;;;6.30;;
47615;SDS011;69146;52.266;7.000;2023-05-07T16:49:54;8.60;;;6.10;;
47615;SDS011;69146;52.266;7.000;2023-05-07T16:52:39;7.38;;;5.75;;
47615;SDS011;69146;52.266;7.000;2023-05-07T16:55:23;6.03;;;5.43;;
47615;SDS011;69146;52.266;7.000;2023-05-07T16:58:09;8.10;;;5.90;;
47615;SDS011;69146;52.266;7.000;2023-05-07T17:00:54;5.88;;;5.05;;
47615;SDS011;69146;52.266;7.000;2023-05-07T17:03:41;6.80;;;5.57;;
47615;SDS011;69146;52.266;7.000;2023-05-07T17:06:30;6.70;;;5.47;;
47615;SDS011;69146;52.266;7.000;2023-05-07T17:09:17;6.25;;;5.65;;